Terminal Aerodrome Forecast
Issued by NWS Twin Cities, MN

Home | Current Version | Previous Version | Text Only | Print | Product List | Glossary On
Versions: 1 2 3 4 5 6 7 8 9 10 11 12 13 14 15 16 17 18 19 20 21 22 23 24 25 26
000
FTUS43 KMPX 052047 AAA
TAFMSP
TAF AMD
KMSP 052047Z 0521/0624 17015G21KT P6SM FEW060 SCT150
     FM060200 16012G18KT P6SM SCT050 OVC120
     FM060600 15012KT 5SM -SHRA OVC045
      TEMPO 0606/0610 2SM TSRA BKN015CB OVC035
     FM061200 16008KT 4SM SHRA BR VCTS BKN015CB OVC030
     FM061400 31011KT 6SM -SHRA SCT015 OVC030
     FM061800 33013G20KT P6SM SCT025 BKN040=

USA.gov is the U.S. government's official web portal to all federal, state and local government web resources and services.